Krabi, Thaïlande

07:07 ICT le 23 décembre 2014 (GMT +0700)
Krabi | Change Station
CLOSE
Current Station
Aéroport
Location: Krabi,
Altitude: 82 ft
Stations météo à proximité

Alt. 82 ft 8.10 °N, 98.99 °E | Updated 7 minutes ago

Mostly Cloudy
Nuageux
75 ° F
Paraît 75 ° F
N
7
Vent Variable Vent de NNE

Aujourd'hui
Haut(e) -- | Bas -- ° F
--% Risque de précip.
Hier
Haut(e) -- | Bas -- ° F
Precip. -- pouce
6:33 AM 6:12 PM
Nouvelle lune, 1% visible
Pression 29.80 pouce
Visibilité 5.6 Miles terrestres
Nuages Nuages épars 2000 ft
Nuageux 12000 ft
Point de rosée 70 ° F
Humidité 83%
Précipitations 0.00 pouce
Profondeur de la couche neigeuse Non disponible.
UV 0 sur 12
Pollen Non disponible.
Qualité de l'air Non disponible.
Flu Activity Non disponible.
METAR VTSG 230000Z 02006KT 9000 SCT020 BKN120 24/21 Q1009 A2981 INFO K RWY32

More Conditions Fewer Conditions

Pression 29.80 pouce
Visibilité 5.6 Miles terrestres
Nuages Nuages épars 2000 ft
Nuageux 12000 ft
Point de rosée 70 ° F
Humidité 83%
Précipitations 0.00 pouce
Profondeur de la couche neigeuse Non disponible.
UV 0 sur 12
Pollen Non disponible.
Qualité de l'air Non disponible.
Flu Activity Non disponible.
METAR VTSG 230000Z 02006KT 9000 SCT020 BKN120 24/21 Q1009 A2981 INFO K RWY32

More Conditions Fewer Conditions

10-Day Weather Forecast

Almanac

Astronomie

Dec. 23, 2014 Lever Coucher
Temps réel
Crépuscule civil
Crépuscule nautique
Crépuscule astronomique
Lune
Durée de lumière visible
Longueur du jour
Tomorrow will be .
, % of the Moon is Illuminated

Extrêmes aujourd'hui

Country Highs Country Lows

Community

WunderPhotos

Upload Photos

1,779,732 Photos téléchargées !

WunderBlogs® & News

Nearby

Qualité de l'air

  Qualité de l'air Indice de la qualité de l'air Polluant
Not available.

Épaisseur de neige

Station Depth Altitude

Activité sismique

Ville Distance Mag. Time & Date
Minimum magnitude displayed is 2.5.

Températures des eaux côtières

Lieu Température

Stations météo à proximité